Terminal Aerodrome Forecast
Issued by NWS

Home | Current Version | Previous Version | Text Only | Print | Product List | Glossary On
Versions: 1 2 3 4 5 6 7 8 9 10 11 12 13 14 15 16 17 18 19 20 21 22 23 24
000
FTUS41 KOKX 241740
TAFSWF
TAF
KSWF 241740Z 2418/2524 06010G20KT P6SM SCT008 OVC012
     FM241900 06010G17KT P6SM OVC014
     FM242200 07010KT P6SM OVC020
     FM250000 05005KT P6SM VCSH OVC022
     FM250600 06004KT 5SM BR OVC007
     FM251200 06004KT P6SM OVC008
     FM251500 05005KT P6SM BKN020
     FM252100 06007KT P6SM BKN035
      AMD NOT SKED=

USA.gov is the U.S. government's official web portal to all federal, state and local government web resources and services.